Time;durP1;ratioP1;P1;durP2;ratioP2;P2;SDS_P1;SDS_P2;PMS_P1;PMS_P2;Temp;Humidity;BMP_temperature;BMP_pressure;BME280_temperature;BME280_humidity;BME280_pressure;Samples;Min_cycle;Max_cycle;Signal;HPM_P1;HPM_P2
2022/07/23 00:00:25;;;;;;;;;;;;;;;21.47;50.85;101517.84;5025490;28;20360;-53
2022/07/23 00:02:50;;;;;;;;;;;;;;;21.43;50.58;101523.59;5030638;28;19952;-52
2022/07/23 00:05:15;;;;;;;;;;;;;;;21.38;51.07;101520.53;5025108;28;20015;-52
2022/07/23 00:07:41;;;;;;;;;;;;;;;21.36;50.76;101515.28;5020364;28;19917;-53
2022/07/23 00:10:06;;;;;;;;;;;;;;;21.35;50.75;101494.03;5027030;28;20343;-54
2022/07/23 00:12:31;;;;;;;;;;;;;;;21.29;51.16;101504.31;5024779;28;20000;-52
2022/07/23 00:14:57;;;;;;;;;;;;;;;21.25;51.24;101507.41;5029098;28;19928;-52
2022/07/23 00:17:22;;;;;;;;;;;;;;;21.22;51.19;101515.72;5034521;28;19962;-52
2022/07/23 00:19:48;;;;;;;;;;;;;;;21.15;51.03;101499.38;5037584;28;19913;-52
2022/07/23 00:22:13;;;;;;;;;;;;;;;21.02;51.14;101503.16;5037384;28;19913;-53
2022/07/23 00:24:38;;;;;;;;;;;;;;;20.96;51.75;101506.38;5037331;28;19923;-52
2022/07/23 00:27:04;;;;;;;;;;;;;;;20.91;51.68;101507.78;5033031;28;20424;-54
2022/07/23 00:29:29;;;;;;;;;;;;;;;20.82;51.67;101501.44;5033905;28;20527;-51
2022/07/23 00:31:54;;;;;;;;;;;;;;;20.80;51.82;101508.72;5035373;28;19940;-51
2022/07/23 00:34:20;;;;;;;;;;;;;;;20.80;52.00;101496.22;5035526;28;19913;-52
2022/07/23 00:36:45;;;;;;;;;;;;;;;20.86;51.94;101497.50;5033150;28;19920;-51
2022/07/23 00:39:10;;;;;;;;;;;;;;;20.88;52.06;101494.69;5032598;28;19913;-52
2022/07/23 00:41:36;;;;;;;;;;;;;;;20.90;51.76;101496.25;5035997;28;20387;-51
2022/07/23 00:44:14;;;;;;;;;;;;;;;20.89;51.91;101489.22;5031817;28;19944;-51
2022/07/23 00:46:44;;;;;;;;;;;;;;;20.85;51.82;101483.28;5037920;28;19924;-52
2022/07/23 00:49:10;;;;;;;;;;;;;;;20.84;51.79;101488.75;5034801;28;19936;-52
2022/07/23 00:51:35;;;;;;;;;;;;;;;20.76;51.82;101481.44;5041862;28;19916;-51
2022/07/23 00:54:00;;;;;;;;;;;;;;;20.70;52.07;101488.16;5037113;28;19921;-52
2022/07/23 00:56:26;;;;;;;;;;;;;;;20.71;52.11;101478.31;5040316;28;19917;-51
2022/07/23 00:58:51;;;;;;;;;;;;;;;20.73;52.21;101480.84;5036064;28;19913;-52
2022/07/23 01:01:16;;;;;;;;;;;;;;;20.70;52.37;101488.16;5034948;28;19992;-51
2022/07/23 01:03:42;;;;;;;;;;;;;;;20.70;52.38;101490.00;5036055;28;20000;-52
2022/07/23 01:06:07;;;;;;;;;;;;;;;20.69;52.19;101497.16;5037490;28;19917;-52
2022/07/23 01:08:32;;;;;;;;;;;;;;;20.70;52.34;101481.97;5035881;28;20391;-51
2022/07/23 01:10:58;;;;;;;;;;;;;;;20.70;52.58;101480.13;5037691;28;19913;-52
2022/07/23 01:13:23;;;;;;;;;;;;;;;20.75;52.24;101484.22;5036634;28;19929;-51
2022/07/23 01:15:48;;;;;;;;;;;;;;;20.76;52.22;101475.25;5037703;28;19920;-52
2022/07/23 01:18:13;;;;;;;;;;;;;;;20.77;52.43;101484.97;5037778;28;19920;-52
2022/07/23 01:20:39;;;;;;;;;;;;;;;20.76;52.32;101481.44;5037451;28;19913;-52
2022/07/23 01:23:04;;;;;;;;;;;;;;;20.74;52.53;101487.88;5037028;28;19971;-51
2022/07/23 01:25:30;;;;;;;;;;;;;;;20.73;52.36;101492.38;5036151;28;19915;-51
2022/07/23 01:27:55;;;;;;;;;;;;;;;20.69;52.46;101491.78;5033060;28;19921;-52
2022/07/23 01:30:20;;;;;;;;;;;;;;;20.69;52.51;101491.78;5030678;28;19917;-51
2022/07/23 01:32:46;;;;;;;;;;;;;;;20.69;52.27;101483.78;5034045;28;20347;-51
2022/07/23 01:35:11;;;;;;;;;;;;;;;20.66;52.70;101486.72;5034279;28;20027;-51
2022/07/23 01:37:37;;;;;;;;;;;;;;;20.65;52.55;101505.59;5031435;28;19909;-52
2022/07/23 01:40:03;;;;;;;;;;;;;;;20.63;52.50;101492.38;5033664;28;20004;-52
2022/07/23 01:42:29;;;;;;;;;;;;;;;20.56;52.83;101489.38;5026747;28;19909;-51
2022/07/23 01:44:54;;;;;;;;;;;;;;;20.52;52.79;101498.66;5034267;28;19943;-51
2022/07/23 01:47:19;;;;;;;;;;;;;;;20.46;52.94;101495.69;5031892;28;19920;-52
2022/07/23 01:49:45;;;;;;;;;;;;;;;20.44;52.88;101500.31;5033086;28;20003;-52
2022/07/23 01:52:10;;;;;;;;;;;;;;;20.40;53.05;101495.22;5036059;28;19963;-51
2022/07/23 01:54:36;;;;;;;;;;;;;;;20.40;52.73;101497.91;5034797;28;19947;-51
2022/07/23 01:57:02;;;;;;;;;;;;;;;20.41;52.65;101499.59;5033972;28;19916;-51
2022/07/23 01:59:27;;;;;;;;;;;;;;;20.33;52.81;101493.22;5030055;28;19983;-51
2022/07/23 02:01:53;;;;;;;;;;;;;;;20.20;52.66;101488.09;5029601;28;20352;-51
2022/07/23 02:04:18;;;;;;;;;;;;;;;20.05;52.98;101483.09;5028132;28;20335;-51
2022/07/23 02:06:44;;;;;;;;;;;;;;;20.03;53.11;101479.75;5028194;28;20281;-51
2022/07/23 02:09:09;;;;;;;;;;;;;;;19.99;52.81;101489.00;5030302;28;19917;-51
2022/07/23 02:11:34;;;;;;;;;;;;;;;19.84;53.04;101483.09;5030040;28;19917;-51
2022/07/23 02:14:00;;;;;;;;;;;;;;;19.74;53.24;101477.69;5031926;28;20000;-53
2022/07/23 02:16:25;;;;;;;;;;;;;;;19.70;53.36;101481.63;5029598;28;19913;-52
2022/07/23 02:18:50;;;;;;;;;;;;;;;19.73;53.27;101475.19;5030651;28;19913;-51
2022/07/23 02:21:16;;;;;;;;;;;;;;;19.75;53.23;101475.91;5031357;28;19921;-52
2022/07/23 02:23:41;;;;;;;;;;;;;;;19.78;53.06;101476.47;5032553;28;19913;-51
2022/07/23 02:26:06;;;;;;;;;;;;;;;19.86;53.03;101483.00;5032388;28;20497;-52
2022/07/23 02:28:32;;;;;;;;;;;;;;;19.88;52.61;101455.19;5028837;28;20361;-51
2022/07/23 02:30:57;;;;;;;;;;;;;;;19.92;52.90;101447.75;5033243;28;19913;-52
2022/07/23 02:33:22;;;;;;;;;;;;;;;19.95;52.35;101452.84;5031950;28;19921;-51
2022/07/23 02:35:48;;;;;;;;;;;;;;;19.93;52.50;101452.13;5031457;28;19909;-51
2022/07/23 02:38:13;;;;;;;;;;;;;;;19.93;52.78;101452.13;5034873;28;19992;-52
2022/07/23 02:40:38;;;;;;;;;;;;;;;19.88;52.65;101454.38;5025210;28;19924;-53
2022/07/23 02:43:03;;;;;;;;;;;;;;;19.82;52.52;101470.88;5026533;28;19913;-52
2022/07/23 02:45:29;;;;;;;;;;;;;;;19.78;52.70;101468.47;5033155;28;19912;-52
2022/07/23 02:47:54;;;;;;;;;;;;;;;19.73;52.49;101473.38;5031521;28;20384;-52
2022/07/23 02:50:20;;;;;;;;;;;;;;;19.72;52.85;101465.47;5032439;28;19963;-52
2022/07/23 02:52:45;;;;;;;;;;;;;;;19.71;52.83;101464.63;5031142;28;19913;-53
2022/07/23 02:55:10;;;;;;;;;;;;;;;19.70;52.61;101475.44;5030219;28;19920;-53
2022/07/23 02:57:36;;;;;;;;;;;;;;;19.70;52.70;101478.97;5030846;28;19928;-53
2022/07/23 03:00:01;;;;;;;;;;;;;;;19.71;52.58;101472.66;5031259;28;19921;-52
2022/07/23 03:02:27;;;;;;;;;;;;;;;19.72;52.54;101465.47;5013352;28;19935;-52
2022/07/23 03:04:52;;;;;;;;;;;;;;;19.69;52.53;101466.59;5032119;28;19920;-53
2022/07/23 03:07:17;;;;;;;;;;;;;;;19.71;52.53;101467.31;5033327;28;19913;-52
2022/07/23 03:09:43;;;;;;;;;;;;;;;19.76;52.56;101466.91;5032318;28;19913;-51
2022/07/23 03:12:08;;;;;;;;;;;;;;;19.76;52.40;101467.75;5031182;28;19996;-51
2022/07/23 03:14:34;;;;;;;;;;;;;;;19.77;52.50;101474.78;5030250;28;20296;-51
2022/07/23 03:17:00;;;;;;;;;;;;;;;19.75;52.33;101471.38;5028810;28;20012;-52
2022/07/23 03:19:25;;;;;;;;;;;;;;;19.72;52.25;101463.66;5030903;28;19917;-52
2022/07/23 03:21:51;;;;;;;;;;;;;;;19.69;52.30;101471.94;5031719;28;20281;-51
2022/07/23 03:24:17;;;;;;;;;;;;;;;19.71;52.63;101467.31;5030293;28;19927;-51
2022/07/23 03:26:43;;;;;;;;;;;;;;;19.73;52.20;101473.38;5028473;28;20366;-52
2022/07/23 03:29:08;;;;;;;;;;;;;;;19.73;52.25;101473.38;5031161;28;19992;-51
2022/07/23 03:31:34;;;;;;;;;;;;;;;19.72;52.12;101469.00;5028013;28;19913;-52
2022/07/23 03:33:59;;;;;;;;;;;;;;;19.69;52.31;101466.59;5031029;28;19913;-52
2022/07/23 03:36:24;;;;;;;;;;;;;;;19.69;52.33;101476.41;5029908;28;19912;-52
2022/07/23 03:38:50;;;;;;;;;;;;;;;19.67;52.46;101467.69;5030285;28;19962;-51
2022/07/23 03:41:16;;;;;;;;;;;;;;;19.64;52.23;101466.13;5028394;28;19951;-51
2022/07/23 03:43:41;;;;;;;;;;;;;;;19.60;52.37;101472.69;5026534;28;20377;-51
2022/07/23 03:46:06;;;;;;;;;;;;;;;19.54;52.58;101474.06;5030572;28;19917;-52
2022/07/23 03:48:32;;;;;;;;;;;;;;;19.47;52.70;101484.41;5027314;28;19996;-51
2022/07/23 03:50:57;;;;;;;;;;;;;;;19.45;52.80;101488.19;5027028;28;19919;-52
2022/07/23 03:53:22;;;;;;;;;;;;;;;19.36;52.74;101484.47;5027290;28;19917;-52
2022/07/23 03:55:47;;;;;;;;;;;;;;;19.30;52.77;101483.16;5029041;28;19940;-52
2022/07/23 03:58:13;;;;;;;;;;;;;;;19.26;53.01;101480.88;5026125;28;19909;-51
2022/07/23 04:00:38;;;;;;;;;;;;;;;19.23;52.90;101470.47;5022790;28;19956;-51
2022/07/23 04:03:04;;;;;;;;;;;;;;;19.23;53.00;101473.13;5030833;28;19996;-52
2022/07/23 04:05:29;;;;;;;;;;;;;;;19.15;52.94;101474.59;5026802;28;19913;-51
2022/07/23 04:07:54;;;;;;;;;;;;;;;19.01;52.98;101461.56;5029594;28;19913;-51
2022/07/23 04:10:19;;;;;;;;;;;;;;;18.89;53.33;101464.25;5026964;28;20012;-53
2022/07/23 04:12:45;;;;;;;;;;;;;;;18.82;53.69;101451.53;5025196;28;19917;-52
2022/07/23 04:15:10;;;;;;;;;;;;;;;18.84;53.64;101450.41;5032618;28;19909;-52
2022/07/23 04:17:35;;;;;;;;;;;;;;;18.87;53.38;101454.69;5030638;28;19960;-51
2022/07/23 04:20:01;;;;;;;;;;;;;;;18.96;53.65;101451.28;5031321;28;19928;-52
2022/07/23 04:22:26;;;;;;;;;;;;;;;19.04;53.38;101456.84;5027775;28;20400;-52
2022/07/23 04:24:52;;;;;;;;;;;;;;;19.09;53.02;101459.13;5029808;28;20364;-52
2022/07/23 04:27:17;;;;;;;;;;;;;;;19.17;53.16;101456.66;5033286;28;19916;-51
2022/07/23 04:29:42;;;;;;;;;;;;;;;19.25;52.81;101456.00;5030589;28;19909;-52
2022/07/23 04:32:07;;;;;;;;;;;;;;;19.30;52.94;101460.97;5030394;28;19916;-52
2022/07/23 04:34:33;;;;;;;;;;;;;;;19.32;52.88;101464.34;5033282;28;19972;-51
2022/07/23 04:36:58;;;;;;;;;;;;;;;19.28;52.94;101457.59;5031079;28;19912;-52
2022/07/23 04:39:23;;;;;;;;;;;;;;;19.30;53.04;101466.28;5008882;28;19920;-53
2022/07/23 04:41:49;;;;;;;;;;;;;;;19.34;53.00;101465.06;5024703;28;19913;-51
2022/07/23 04:44:14;;;;;;;;;;;;;;;19.32;53.12;101464.34;5029893;28;19920;-51
2022/07/23 04:46:39;;;;;;;;;;;;;;;19.27;53.08;101466.56;5031162;28;19948;-51
2022/07/23 04:49:05;;;;;;;;;;;;;;;19.18;53.24;101462.84;5032726;28;19935;-51
2022/07/23 04:51:30;;;;;;;;;;;;;;;19.11;53.33;101462.50;5026597;28;19913;-51
2022/07/23 04:53:55;;;;;;;;;;;;;;;19.06;53.53;101453.19;5029353;28;19913;-52
2022/07/23 04:56:21;;;;;;;;;;;;;;;19.09;53.49;101443.13;5012928;28;20365;-53
2022/07/23 04:58:46;;;;;;;;;;;;;;;19.04;53.42;101434.66;5034586;28;19917;-51
2022/07/23 05:01:15;;;;;;;;;;;;;;;18.97;53.81;101441.47;5029413;28;19909;-51
2022/07/23 05:03:40;;;;;;;;;;;;;;;19.01;53.63;101451.75;5031195;28;19912;-51
2022/07/23 05:06:05;;;;;;;;;;;;;;;19.10;53.52;101459.94;5033421;28;20495;-52
2022/07/23 05:08:31;;;;;;;;;;;;;;;19.16;53.47;101464.78;5029247;28;19920;-52
2022/07/23 05:10:56;;;;;;;;;;;;;;;19.27;53.41;101461.25;5033894;28;19921;-51
2022/07/23 05:13:21;;;;;;;;;;;;;;;19.37;53.37;101480.84;5031175;28;19987;-51
2022/07/23 05:15:47;;;;;;;;;;;;;;;19.46;53.17;101488.06;5032483;28;19979;-53
2022/07/23 05:18:12;;;;;;;;;;;;;;;19.57;52.99;101483.66;5033615;28;19913;-51
2022/07/23 05:20:37;;;;;;;;;;;;;;;19.67;52.52;101473.88;5032381;28;19971;-52
2022/07/23 05:23:03;;;;;;;;;;;;;;;19.76;52.58;101478.41;5031063;28;19923;-51
2022/07/23 05:25:28;;;;;;;;;;;;;;;19.86;52.59;101480.31;5031601;28;19916;-51
2022/07/23 05:27:54;;;;;;;;;;;;;;;19.97;52.24;101480.28;5030161;28;19913;-52
2022/07/23 05:30:19;;;;;;;;;;;;;;;20.01;52.23;101484.38;5026561;28;19913;-55
2022/07/23 05:32:44;;;;;;;;;;;;;;;20.06;51.94;101479.47;5022907;28;19925;-52
2022/07/23 05:35:10;;;;;;;;;;;;;;;20.09;51.69;101484.53;5024818;28;19960;-51
2022/07/23 05:37:35;;;;;;;;;;;;;;;20.09;51.70;101478.38;5029796;28;19913;-52
2022/07/23 05:40:03;;;;;;;;;;;;;;;20.09;51.59;101486.38;5029854;28;19960;-54
2022/07/23 05:42:28;;;;;;;;;;;;;;;20.09;51.74;101492.56;5032144;28;19928;-52
2022/07/23 05:44:53;;;;;;;;;;;;;;;20.11;51.69;101505.81;5035295;28;19913;-51
2022/07/23 05:47:19;;;;;;;;;;;;;;;20.15;51.69;101527.75;5029977;28;20360;-51
2022/07/23 05:49:44;;;;;;;;;;;;;;;20.19;51.44;101547.91;5028683;28;19956;-52
2022/07/23 05:52:09;;;;;;;;;;;;;;;20.20;51.56;101557.56;5028635;28;19917;-51
2022/07/23 05:54:35;;;;;;;;;;;;;;;20.19;51.52;101559.41;5016235;28;19920;-51
2022/07/23 05:57:00;;;;;;;;;;;;;;;20.20;51.74;101557.56;5026824;28;20352;-52
2022/07/23 05:59:26;;;;;;;;;;;;;;;20.18;51.85;101543.53;5025068;28;19967;-52
2022/07/23 06:01:51;;;;;;;;;;;;;;;20.14;51.95;101524.22;5030978;28;19920;-51
2022/07/23 06:04:16;;;;;;;;;;;;;;;20.12;52.19;101503.97;5030469;28;20276;-52
2022/07/23 06:06:41;;;;;;;;;;;;;;;20.07;52.62;101497.19;5028033;28;20012;-52
2022/07/23 06:09:07;;;;;;;;;;;;;;;20.02;53.08;101488.75;5033236;28;19921;-52
2022/07/23 06:11:32;;;;;;;;;;;;;;;20.02;53.29;101471.84;5031242;28;19921;-52
2022/07/23 06:13:58;;;;;;;;;;;;;;;20.01;53.26;101468.34;5020692;28;19918;-51
2022/07/23 06:16:23;;;;;;;;;;;;;;;20.03;53.47;101471.75;5027104;28;19940;-53
2022/07/23 06:18:48;;;;;;;;;;;;;;;20.00;54.17;101477.34;5029455;28;20388;-52
2022/07/23 06:21:14;;;;;;;;;;;;;;;19.97;54.42;101464.25;5026262;28;20014;-51
2022/07/23 06:23:39;;;;;;;;;;;;;;;19.96;54.72;101467.91;5027911;28;19916;-52
2022/07/23 06:26:04;;;;;;;;;;;;;;;19.93;54.73;101481.50;5027280;28;19913;-51
2022/07/23 06:28:30;;;;;;;;;;;;;;;19.91;55.12;101475.44;5030947;28;20320;-52
2022/07/23 06:30:55;;;;;;;;;;;;;;;19.95;55.30;101492.91;5023454;28;19917;-51
2022/07/23 06:33:20;;;;;;;;;;;;;;;19.98;55.16;101500.66;5028516;28;19925;-51
2022/07/23 06:35:45;;;;;;;;;;;;;;;20.02;55.49;101499.44;5025643;28;20340;-52
2022/07/23 06:38:11;;;;;;;;;;;;;;;20.03;55.19;101490.44;5031832;28;19921;-51
2022/07/23 06:40:36;;;;;;;;;;;;;;;20.04;55.31;101492.09;5021724;28;19921;-51
2022/07/23 06:43:01;;;;;;;;;;;;;;;20.09;55.32;101500.56;5019534;28;20430;-53
2022/07/23 06:45:27;;;;;;;;;;;;;;;20.10;54.85;101496.94;5022683;28;19927;-53
2022/07/23 06:47:52;;;;;;;;;;;;;;;20.13;54.49;101500.31;5022725;28;19928;-53
2022/07/23 06:50:17;;;;;;;;;;;;;;;20.14;54.54;101502.00;5024800;28;20416;-56
2022/07/23 06:52:43;;;;;;;;;;;;;;;20.15;54.90;101509.06;5025305;28;19928;-53
2022/07/23 06:55:09;;;;;;;;;;;;;;;20.20;54.99;101518.34;5023480;28;19916;-53
2022/07/23 06:57:34;;;;;;;;;;;;;;;20.25;55.03;101510.78;5021811;28;19912;-52
2022/07/23 06:59:59;;;;;;;;;;;;;;;20.34;55.07;101514.50;5030588;28;19912;-56
2022/07/23 07:02:25;;;;;;;;;;;;;;;20.39;55.02;101506.91;5029370;28;20356;-53
2022/07/23 07:04:50;;;;;;;;;;;;;;;20.34;54.59;101494.91;5030160;28;19957;-52
2022/07/23 07:07:15;;;;;;;;;;;;;;;20.25;54.79;101502.78;5023443;28;20343;-55
2022/07/23 07:09:41;;;;;;;;;;;;;;;20.22;54.66;101494.16;5021529;28;19921;-54
2022/07/23 07:12:06;;;;;;;;;;;;;;;20.23;54.51;101486.03;5024048;28;20342;-53
2022/07/23 07:14:31;;;;;;;;;;;;;;;20.20;54.41;101490.78;5032933;28;19909;-56
2022/07/23 07:16:57;;;;;;;;;;;;;;;20.14;54.55;101478.78;5026914;28;19930;-53
2022/07/23 07:19:22;;;;;;;;;;;;;;;20.09;54.49;101479.19;5031872;28;19913;-54
2022/07/23 07:21:47;;;;;;;;;;;;;;;20.08;54.75;101477.50;5028452;28;19913;-54
2022/07/23 07:24:13;;;;;;;;;;;;;;;20.10;54.83;101475.56;5025558;28;19917;-53
2022/07/23 07:26:39;;;;;;;;;;;;;;;20.13;54.89;101469.09;5024506;28;19913;-53
2022/07/23 07:29:04;;;;;;;;;;;;;;;20.10;54.77;101474.72;5023728;28;19939;-52
2022/07/23 07:31:30;;;;;;;;;;;;;;;20.07;54.86;101485.66;5017984;28;19917;-54
2022/07/23 07:33:56;;;;;;;;;;;;;;;20.08;55.39;101490.03;5022320;28;19921;-53
2022/07/23 07:36:22;;;;;;;;;;;;;;;20.05;55.34;101498.31;5022888;28;20324;-54
2022/07/23 07:38:47;;;;;;;;;;;;;;;20.05;55.07;101491.13;5027833;28;20411;-54
2022/07/23 07:41:12;;;;;;;;;;;;;;;20.06;55.09;101478.63;5037243;28;19916;-52
2022/07/23 07:43:38;;;;;;;;;;;;;;;20.00;55.22;101485.34;5019597;28;20011;-54
2022/07/23 07:46:04;;;;;;;;;;;;;;;19.98;55.25;101487.31;5016856;28;19966;-53
2022/07/23 07:48:29;;;;;;;;;;;;;;;20.02;55.20;101478.06;5021252;28;20287;-54
2022/07/23 07:50:54;;;;;;;;;;;;;;;20.04;55.35;101475.25;5024396;28;19921;-52
2022/07/23 07:53:20;;;;;;;;;;;;;;;20.03;55.57;101471.75;5027440;28;20290;-53
2022/07/23 07:55:45;;;;;;;;;;;;;;;20.06;55.53;101468.78;5023036;28;19925;-54
2022/07/23 07:58:10;;;;;;;;;;;;;;;20.13;55.28;101462.91;5016263;28;19917;-55
2022/07/23 08:00:36;;;;;;;;;;;;;;;20.14;55.52;101460.09;5022044;28;20324;-53
2022/07/23 08:03:01;;;;;;;;;;;;;;;20.12;55.13;101451.38;5024586;28;19997;-53
2022/07/23 08:05:27;;;;;;;;;;;;;;;20.04;55.49;101465.38;5015690;28;19956;-53
2022/07/23 08:07:53;;;;;;;;;;;;;;;20.06;55.52;101483.97;5024783;28;19956;-54
2022/07/23 08:10:19;;;;;;;;;;;;;;;20.08;55.43;101496.22;5024670;28;19955;-53
2022/07/23 08:12:55;;;;;;;;;;;;;;;20.05;55.68;101500.97;5029321;28;19917;-54
2022/07/23 08:15:21;;;;;;;;;;;;;;;20.12;55.76;101501.28;5006766;28;19913;-55
2022/07/23 08:17:47;;;;;;;;;;;;;;;20.20;55.70;101496.13;5006915;28;19957;-52
2022/07/23 08:20:13;;;;;;;;;;;;;;;20.30;56.07;101490.81;5024649;28;20293;-53
2022/07/23 08:22:46;;;;;;;;;;;;;;;20.38;55.58;101501.69;5022168;28;19916;-53
2022/07/23 08:25:11;;;;;;;;;;;;;;;20.46;55.91;101517.06;5027028;28;19995;-53
2022/07/23 08:27:37;;;;;;;;;;;;;;;20.50;55.45;101515.78;5015155;28;21175;-52
2022/07/23 08:30:02;;;;;;;;;;;;;;;20.56;55.52;101509.91;5019573;28;20422;-51
2022/07/23 08:32:27;;;;;;;;;;;;;;;20.57;55.04;101503.59;5017648;28;19931;-52
2022/07/23 08:34:53;;;;;;;;;;;;;;;20.61;54.84;101488.13;5023074;28;19925;-52
2022/07/23 08:37:18;;;;;;;;;;;;;;;20.62;54.74;101485.31;5025509;28;19910;-52
2022/07/23 08:39:43;;;;;;;;;;;;;;;20.65;54.72;101490.38;5028302;28;19921;-52
2022/07/23 08:42:09;;;;;;;;;;;;;;;20.69;54.51;101483.78;5028744;28;20372;-51
2022/07/23 08:44:35;;;;;;;;;;;;;;;20.71;54.29;101487.16;5030496;28;19956;-52
2022/07/23 08:47:01;;;;;;;;;;;;;;;20.76;54.41;101481.44;5023865;28;19979;-53
2022/07/23 08:49:26;;;;;;;;;;;;;;;20.77;54.03;101475.09;5006569;28;19948;-52
2022/07/23 08:51:52;;;;;;;;;;;;;;;20.79;54.04;101474.97;5029575;28;20380;-52
2022/07/23 08:54:17;;;;;;;;;;;;;;;20.80;53.77;101469.47;5024961;28;19917;-52
2022/07/23 08:56:43;;;;;;;;;;;;;;;20.85;53.94;101469.06;5026401;28;19928;-52
2022/07/23 08:59:08;;;;;;;;;;;;;;;20.88;53.84;101474.13;5025748;28;19928;-53
2022/07/23 09:01:33;;;;;;;;;;;;;;;20.87;53.69;101483.16;5023962;28;20070;-52
2022/07/23 09:03:59;;;;;;;;;;;;;;;20.88;53.66;101481.31;5017477;28;19960;-52
2022/07/23 09:06:24;;;;;;;;;;;;;;;20.93;53.44;101485.28;5026137;28;19985;-55
2022/07/23 09:08:49;;;;;;;;;;;;;;;20.91;53.65;101484.56;5031188;28;19921;-52
2022/07/23 09:11:16;;;;;;;;;;;;;;;20.88;53.39;101463.44;5026448;28;19968;-52
2022/07/23 09:13:52;;;;;;;;;;;;;;;20.89;53.69;101469.63;5024414;28;19921;-52
2022/07/23 09:16:18;;;;;;;;;;;;;;;20.87;53.40;101483.16;5027509;28;20395;-53
2022/07/23 09:18:47;;;;;;;;;;;;;;;20.79;53.63;101489.19;5023038;28;19923;-54
2022/07/23 09:21:14;;;;;;;;;;;;;;;20.73;53.82;101491.53;5017221;28;19917;-53
2022/07/23 09:23:40;;;;;;;;;;;;;;;20.73;53.73;101483.50;5021920;28;20376;-54
2022/07/23 09:26:20;;;;;;;;;;;;;;;20.77;53.91;101479.63;5024881;28;20003;-52
2022/07/23 09:28:51;;;;;;;;;;;;;;;20.81;53.61;101478.34;5020270;28;19967;-53
2022/07/23 09:31:16;;;;;;;;;;;;;;;20.82;53.41;101483.56;5021876;28;19963;-53
2022/07/23 09:33:42;;;;;;;;;;;;;;;20.80;53.55;101485.53;5017990;28;20017;-54
2022/07/23 09:36:09;;;;;;;;;;;;;;;20.77;53.48;101482.28;5022340;28;19921;-54
2022/07/23 09:38:34;;;;;;;;;;;;;;;20.71;53.64;101480.97;5029456;28;19920;-53
2022/07/23 09:41:10;;;;;;;;;;;;;;;20.65;53.64;101479.69;5029388;28;20284;-53
2022/07/23 09:43:35;;;;;;;;;;;;;;;20.57;53.68;101463.50;5029270;28;19917;-53
2022/07/23 09:46:36;;;;;;;;;;;;;;;20.60;53.79;101468.56;5028397;28;19927;-52
2022/07/23 09:49:11;;;;;;;;;;;;;;;20.65;53.65;101466.31;4972030;28;20375;-52
2022/07/23 09:51:46;;;;;;;;;;;;;;;20.67;53.21;101472.38;5015023;28;20436;-53
2022/07/23 09:54:25;;;;;;;;;;;;;;;20.69;53.25;101478.44;5027825;28;19917;-52
2022/07/23 09:56:51;;;;;;;;;;;;;;;20.70;53.19;101471.28;5028995;28;19919;-52
2022/07/23 09:59:19;;;;;;;;;;;;;;;20.73;53.36;101470.13;5027005;28;19921;-53
2022/07/23 10:01:45;;;;;;;;;;;;;;;20.71;53.50;101473.78;5024545;28;19920;-53
2022/07/23 10:04:11;;;;;;;;;;;;;;;20.75;53.14;101478.88;5020859;28;20297;-52
2022/07/23 10:06:37;;;;;;;;;;;;;;;20.78;53.03;101483.97;5025367;28;19917;-53
2022/07/23 10:09:02;;;;;;;;;;;;;;;20.80;52.86;101479.31;5019535;28;19921;-52
2022/07/23 10:11:28;;;;;;;;;;;;;;;20.80;52.73;101479.31;5024117;28;20566;-53
2022/07/23 10:14:02;;;;;;;;;;;;;;;20.80;52.92;101484.66;5021270;28;20431;-52
2022/07/23 10:16:28;;;;;;;;;;;;;;;20.79;52.90;101485.69;5027336;28;21232;-53
2022/07/23 10:18:54;;;;;;;;;;;;;;;20.80;53.03;101488.19;5022691;28;19924;-53
2022/07/23 10:21:45;;;;;;;;;;;;;;;20.87;53.00;101493.84;5023390;28;19927;-52
2022/07/23 10:24:20;;;;;;;;;;;;;;;20.96;52.59;101497.53;5023770;28;20319;-53
2022/07/23 10:26:56;;;;;;;;;;;;;;;21.00;52.60;101497.09;5025346;28;19970;-54
2022/07/23 10:29:24;;;;;;;;;;;;;;;21.00;51.95;101499.78;5020401;28;19948;-53
2022/07/23 10:31:52;;;;;;;;;;;;;;;20.98;52.09;101493.72;5024463;28;20448;-53
2022/07/23 10:34:32;;;;;;;;;;;;;;;21.08;52.38;101495.56;5021487;28;19924;-53
2022/07/23 10:37:02;;;;;;;;;;;;;;;21.23;51.80;101499.53;5025872;28;19968;-53
2022/07/23 10:39:29;;;;;;;;;;;;;;;21.36;51.43;101503.75;5024942;28;19920;-54
2022/07/23 10:42:08;;;;;;;;;;;;;;;21.44;51.29;101499.38;5023286;28;20013;-53
2022/07/23 10:44:37;;;;;;;;;;;;;;;21.51;51.40;101502.34;5022671;28;19917;-53
2022/07/23 10:49:32;;;;;;;;;;;;;;;21.54;50.46;101506.56;5016493;28;19924;-53
2022/07/23 10:52:13;;;;;;;;;;;;;;;21.52;50.49;101487.97;5019222;28;19917;-53
2022/07/23 10:54:39;;;;;;;;;;;;;;;21.57;50.10;101496.38;5012294;28;19916;-53
2022/07/23 10:57:06;;;;;;;;;;;;;;;21.67;50.38;101500.94;5020822;28;19917;-54
2022/07/23 10:59:51;;;;;;;;;;;;;;;21.74;50.03;101492.19;5021134;28;20331;-54
2022/07/23 11:02:21;;;;;;;;;;;;;;;21.81;49.63;101502.31;5017459;28;19913;-54
2022/07/23 11:04:53;;;;;;;;;;;;;;;21.89;49.39;101491.72;5021528;28;20002;-54
2022/07/23 11:07:18;;;;;;;;;;;;;;;21.96;48.98;101489.31;5021700;28;19920;-54
2022/07/23 11:09:45;;;;;;;;;;;;;;;22.02;49.14;101494.06;5021970;28;19917;-54
2022/07/23 11:12:15;;;;;;;;;;;;;;;22.06;49.04;101495.47;5021798;28;19944;-54
2022/07/23 11:14:58;;;;;;;;;;;;;;;22.14;48.49;101490.25;5025046;28;19960;-54
2022/07/23 11:17:27;;;;;;;;;;;;;;;22.20;48.33;101508.41;5020447;28;19920;-52
2022/07/23 11:20:07;;;;;;;;;;;;;;;22.26;48.17;101501.59;5026569;28;20389;-53
2022/07/23 11:22:40;;;;;;;;;;;;;;;22.30;47.85;101486.09;5020464;28;19984;-54
2022/07/23 11:25:05;;;;;;;;;;;;;;;22.35;48.05;101484.66;5022820;28;19917;-53
2022/07/23 11:27:41;;;;;;;;;;;;;;;22.39;47.35;101482.50;5025560;28;19974;-53
2022/07/23 11:30:07;;;;;;;;;;;;;;;22.39;47.00;101485.19;5023709;28;19952;-53
2022/07/23 11:32:35;;;;;;;;;;;;;;;22.43;47.29;101485.75;5023339;28;19920;-53
2022/07/23 11:35:01;;;;;;;;;;;;;;;22.44;47.07;101493.69;5024945;28;19913;-52
2022/07/23 11:37:37;;;;;;;;;;;;;;;22.47;47.21;101496.03;5022462;28;19982;-55
2022/07/23 11:40:04;;;;;;;;;;;;;;;22.48;46.85;101487.00;5021492;28;19920;-53
2022/07/23 11:42:30;;;;;;;;;;;;;;;22.53;46.97;101487.41;5024025;28;19921;-54
2022/07/23 11:44:55;;;;;;;;;;;;;;;22.58;46.98;101478.09;5021769;28;19924;-52
2022/07/23 11:47:26;;;;;;;;;;;;;;;22.61;46.75;101477.78;5022436;28;19921;-52
2022/07/23 11:49:52;;;;;;;;;;;;;;;22.67;46.62;101477.16;5021150;28;19972;-52
2022/07/23 11:52:17;;;;;;;;;;;;;;;22.76;46.54;101478.09;5021290;28;19925;-53
2022/07/23 11:54:49;;;;;;;;;;;;;;;22.82;46.45;101480.19;5022304;28;19922;-54
2022/07/23 11:57:14;;;;;;;;;;;;;;;22.90;46.26;101482.13;5022810;28;20465;-54
2022/07/23 11:59:40;;;;;;;;;;;;;;;22.97;46.21;101473.31;5006217;28;19936;-53
2022/07/23 12:02:06;;;;;;;;;;;;;;;23.01;46.17;101487.25;5024835;28;19920;-53
2022/07/23 12:04:39;;;;;;;;;;;;;;;23.05;45.82;101477.91;5019960;28;19917;-54
2022/07/23 12:07:05;;;;;;;;;;;;;;;23.09;45.69;101476.59;5023963;28;19913;-54
2022/07/23 12:09:30;;;;;;;;;;;;;;;23.12;45.72;101476.28;5016951;28;19944;-52
2022/07/23 12:11:59;;;;;;;;;;;;;;;23.14;45.45;101468.09;5019999;28;19925;-53
2022/07/23 12:14:25;;;;;;;;;;;;;;;23.14;45.45;101463.56;5020891;28;19972;-53
2022/07/23 12:17:09;;;;;;;;;;;;;;;23.21;45.44;101463.00;5020461;28;19929;-54
2022/07/23 12:19:35;;;;;;;;;;;;;;;23.28;45.17;101466.72;5023597;28;20019;-52
2022/07/23 12:22:00;;;;;;;;;;;;;;;23.38;44.89;101467.47;5019938;28;19935;-52
2022/07/23 12:24:25;;;;;;;;;;;;;;;23.44;44.79;101469.53;5021995;28;19959;-53
2022/07/23 12:27:10;;;;;;;;;;;;;;;23.48;44.64;101474.63;5023606;28;19979;-52
2022/07/23 12:29:36;;;;;;;;;;;;;;;23.41;44.40;101472.53;5019764;28;19921;-53
2022/07/23 12:32:02;;;;;;;;;;;;;;;23.37;44.26;101468.47;5020480;28;20296;-53
2022/07/23 12:34:27;;;;;;;;;;;;;;;23.37;44.46;101463.09;5020829;28;20007;-53